sensor_id;sensor_type;location;lat;lon;timestamp;temperature;humidity
68439;SHT31;55421;51.600;5.718;2023-02-28T00:01:32;0.73;72.00
68439;SHT31;55421;51.600;5.718;2023-02-28T00:03:59;0.69;72.07
68439;SHT31;55421;51.600;5.718;2023-02-28T00:06:26;0.66;72.10
68439;SHT31;55421;51.600;5.718;2023-02-28T00:08:52;0.68;72.10
68439;SHT31;55421;51.600;5.718;2023-02-28T00:11:19;0.68;72.16
68439;SHT31;55421;51.600;5.718;2023-02-28T00:13:47;0.69;72.25
68439;SHT31;55421;51.600;5.718;2023-02-28T00:16:16;0.68;72.30
68439;SHT31;55421;51.600;5.718;2023-02-28T00:18:46;0.67;72.30
68439;SHT31;55421;51.600;5.718;2023-02-28T00:21:14;0.64;72.30
68439;SHT31;55421;51.600;5.718;2023-02-28T00:23:41;0.59;72.30
68439;SHT31;55421;51.600;5.718;2023-02-28T00:26:08;0.55;72.37
68439;SHT31;55421;51.600;5.718;2023-02-28T00:28:35;0.52;72.36
68439;SHT31;55421;51.600;5.718;2023-02-28T00:31:01;0.52;72.36
68439;SHT31;55421;51.600;5.718;2023-02-28T00:33:28;0.54;72.42
68439;SHT31;55421;51.600;5.718;2023-02-28T00:36:05;0.57;72.50
68439;SHT31;55421;51.600;5.718;2023-02-28T00:38:34;0.57;72.50
68439;SHT31;55421;51.600;5.718;2023-02-28T00:41:01;0.56;72.50
68439;SHT31;55421;51.600;5.718;2023-02-28T00:43:31;0.53;72.50
68439;SHT31;55421;51.600;5.718;2023-02-28T00:46:03;0.52;72.54
68439;SHT31;55421;51.600;5.718;2023-02-28T00:48:30;0.48;72.60
68439;SHT31;55421;51.600;5.718;2023-02-28T00:50:56;0.45;72.60
68439;SHT31;55421;51.600;5.718;2023-02-28T00:53:23;0.44;72.63
68439;SHT31;55421;51.600;5.718;2023-02-28T00:55:50;0.44;72.66
68439;SHT31;55421;51.600;5.718;2023-02-28T00:58:16;0.48;72.70
68439;SHT31;55421;51.600;5.718;2023-02-28T01:00:43;0.49;72.70
68439;SHT31;55421;51.600;5.718;2023-02-28T01:03:18;0.51;72.60
68439;SHT31;55421;51.600;5.718;2023-02-28T01:05:46;0.49;72.50
68439;SHT31;55421;51.600;5.718;2023-02-28T01:08:13;0.47;72.40
68439;SHT31;55421;51.600;5.718;2023-02-28T01:10:41;0.42;72.43
68439;SHT31;55421;51.600;5.718;2023-02-28T01:13:08;0.38;72.50
68439;SHT31;55421;51.600;5.718;2023-02-28T01:15:34;0.32;72.59
68439;SHT31;55421;51.600;5.718;2023-02-28T01:18:01;0.29;72.73
68439;SHT31;55421;51.600;5.718;2023-02-28T01:20:27;0.29;72.82
68439;SHT31;55421;51.600;5.718;2023-02-28T01:22:54;0.29;72.79
68439;SHT31;55421;51.600;5.718;2023-02-28T01:25:20;0.31;72.70
68439;SHT31;55421;51.600;5.718;2023-02-28T01:27:50;0.31;72.67
68439;SHT31;55421;51.600;5.718;2023-02-28T01:30:17;0.31;72.60
68439;SHT31;55421;51.600;5.718;2023-02-28T01:32:43;0.30;72.60
68439;SHT31;55421;51.600;5.718;2023-02-28T01:35:10;0.30;72.53
68439;SHT31;55421;51.600;5.718;2023-02-28T01:37:36;0.30;72.58
68439;SHT31;55421;51.600;5.718;2023-02-28T01:40:03;0.28;72.58
68439;SHT31;55421;51.600;5.718;2023-02-28T01:42:30;0.26;72.61
68439;SHT31;55421;51.600;5.718;2023-02-28T01:45:08;0.24;72.69
68439;SHT31;55421;51.600;5.718;2023-02-28T01:47:54;0.22;72.70
68439;SHT31;55421;51.600;5.718;2023-02-28T01:50:28;0.25;72.70
68439;SHT31;55421;51.600;5.718;2023-02-28T01:53:02;0.28;72.78
68439;SHT31;55421;51.600;5.718;2023-02-28T01:55:34;0.32;72.84
68439;SHT31;55421;51.600;5.718;2023-02-28T01:58:02;0.37;72.95
68439;SHT31;55421;51.600;5.718;2023-02-28T02:00:33;0.41;72.93
68439;SHT31;55421;51.600;5.718;2023-02-28T02:03:04;0.43;72.90
68439;SHT31;55421;51.600;5.718;2023-02-28T02:05:37;0.44;72.95
68439;SHT31;55421;51.600;5.718;2023-02-28T02:08:10;0.46;73.07
68439;SHT31;55421;51.600;5.718;2023-02-28T02:10:42;0.47;73.14
68439;SHT31;55421;51.600;5.718;2023-02-28T02:16:05;0.46;73.08
68439;SHT31;55421;51.600;5.718;2023-02-28T02:18:52;0.45;73.04
68439;SHT31;55421;51.600;5.718;2023-02-28T02:36:27;0.39;73.47
68439;SHT31;55421;51.600;5.718;2023-02-28T02:39:06;0.42;73.54
68439;SHT31;55421;51.600;5.718;2023-02-28T02:42:01;0.44;73.64
68439;SHT31;55421;51.600;5.718;2023-02-28T02:44:42;0.46;73.71
68439;SHT31;55421;51.600;5.718;2023-02-28T02:47:17;0.48;73.75
68439;SHT31;55421;51.600;5.718;2023-02-28T02:49:50;0.49;73.81
68439;SHT31;55421;51.600;5.718;2023-02-28T02:52:23;0.50;73.89
68439;SHT31;55421;51.600;5.718;2023-02-28T02:55:00;0.52;73.90
68439;SHT31;55421;51.600;5.718;2023-02-28T02:57:31;0.55;73.92
68439;SHT31;55421;51.600;5.718;2023-02-28T03:00:03;0.60;73.91
68439;SHT31;55421;51.600;5.718;2023-02-28T03:02:35;0.63;73.90
68439;SHT31;55421;51.600;5.718;2023-02-28T03:05:06;0.67;73.90
68439;SHT31;55421;51.600;5.718;2023-02-28T03:07:44;0.69;73.90
68439;SHT31;55421;51.600;5.718;2023-02-28T03:10:30;0.70;73.90
68439;SHT31;55421;51.600;5.718;2023-02-28T03:19:07;0.71;73.82
68439;SHT31;55421;51.600;5.718;2023-02-28T03:27:15;0.79;73.75
68439;SHT31;55421;51.600;5.718;2023-02-28T03:29:51;0.80;73.74
68439;SHT31;55421;51.600;5.718;2023-02-28T03:32:41;0.80;73.71
68439;SHT31;55421;51.600;5.718;2023-02-28T03:35:23;0.79;73.72
68439;SHT31;55421;51.600;5.718;2023-02-28T03:38:00;0.81;73.78
68439;SHT31;55421;51.600;5.718;2023-02-28T03:40:43;0.86;73.78
68439;SHT31;55421;51.600;5.718;2023-02-28T03:43:28;0.89;73.80
68439;SHT31;55421;51.600;5.718;2023-02-28T03:46:01;0.92;73.80
68439;SHT31;55421;51.600;5.718;2023-02-28T03:48:42;0.95;73.80
68439;SHT31;55421;51.600;5.718;2023-02-28T03:51:16;0.94;73.82
68439;SHT31;55421;51.600;5.718;2023-02-28T03:53:50;0.95;73.85
68439;SHT31;55421;51.600;5.718;2023-02-28T03:56:23;0.95;73.90
68439;SHT31;55421;51.600;5.718;2023-02-28T03:58:58;0.97;73.90
68439;SHT31;55421;51.600;5.718;2023-02-28T04:01:48;1.02;73.90
68439;SHT31;55421;51.600;5.718;2023-02-28T04:04:15;1.07;73.90
68439;SHT31;55421;51.600;5.718;2023-02-28T04:06:44;1.10;73.90
68439;SHT31;55421;51.600;5.718;2023-02-28T04:09:12;1.11;73.89
68439;SHT31;55421;51.600;5.718;2023-02-28T04:11:44;1.11;73.88
68439;SHT31;55421;51.600;5.718;2023-02-28T04:14:17;1.10;73.80
68439;SHT31;55421;51.600;5.718;2023-02-28T04:16:44;1.10;73.80
68439;SHT31;55421;51.600;5.718;2023-02-28T04:19:12;1.09;73.80
68439;SHT31;55421;51.600;5.718;2023-02-28T04:21:41;1.10;73.80
68439;SHT31;55421;51.600;5.718;2023-02-28T04:24:18;1.15;73.80
68439;SHT31;55421;51.600;5.718;2023-02-28T04:26:54;1.20;73.80
68439;SHT31;55421;51.600;5.718;2023-02-28T04:29:27;1.23;73.80
68439;SHT31;55421;51.600;5.718;2023-02-28T04:31:58;1.26;73.80
68439;SHT31;55421;51.600;5.718;2023-02-28T04:34:26;1.28;73.76
68439;SHT31;55421;51.600;5.718;2023-02-28T04:36:56;1.28;73.71
68439;SHT31;55421;51.600;5.718;2023-02-28T04:39:23;1.28;73.70
68439;SHT31;55421;51.600;5.718;2023-02-28T04:41:51;1.27;73.67
68439;SHT31;55421;51.600;5.718;2023-02-28T04:44:17;1.26;73.60
68439;SHT31;55421;51.600;5.718;2023-02-28T04:46:43;1.26;73.60
68439;SHT31;55421;51.600;5.718;2023-02-28T04:49:11;1.28;73.60
68439;SHT31;55421;51.600;5.718;2023-02-28T04:51:39;1.30;73.60
68439;SHT31;55421;51.600;5.718;2023-02-28T04:54:06;1.31;73.68
68439;SHT31;55421;51.600;5.718;2023-02-28T04:56:33;1.31;73.70
68439;SHT31;55421;51.600;5.718;2023-02-28T04:59:00;1.31;73.80
68439;SHT31;55421;51.600;5.718;2023-02-28T05:01:27;1.28;73.80
68439;SHT31;55421;51.600;5.718;2023-02-28T05:03:57;1.26;73.79
68439;SHT31;55421;51.600;5.718;2023-02-28T05:06:28;1.25;73.75
68439;SHT31;55421;51.600;5.718;2023-02-28T05:08:57;1.27;73.70
68439;SHT31;55421;51.600;5.718;2023-02-28T05:14:01;1.29;73.70
68439;SHT31;55421;51.600;5.718;2023-02-28T05:16:30;1.29;73.69
68439;SHT31;55421;51.600;5.718;2023-02-28T05:18:59;1.28;73.61
68439;SHT31;55421;51.600;5.718;2023-02-28T05:21:30;1.26;73.60
68439;SHT31;55421;51.600;5.718;2023-02-28T05:24:00;1.24;73.53
68439;SHT31;55421;51.600;5.718;2023-02-28T05:26:31;1.22;73.50
68439;SHT31;55421;51.600;5.718;2023-02-28T05:29:02;1.23;73.48
68439;SHT31;55421;51.600;5.718;2023-02-28T05:31:29;1.26;73.47
68439;SHT31;55421;51.600;5.718;2023-02-28T05:33:55;1.29;73.50
68439;SHT31;55421;51.600;5.718;2023-02-28T05:36:21;1.32;73.50
68439;SHT31;55421;51.600;5.718;2023-02-28T05:38:48;1.35;73.49
68439;SHT31;55421;51.600;5.718;2023-02-28T05:41:16;1.34;73.43
68439;SHT31;55421;51.600;5.718;2023-02-28T05:43:45;1.35;73.39
68439;SHT31;55421;51.600;5.718;2023-02-28T05:46:12;1.34;73.31
68439;SHT31;55421;51.600;5.718;2023-02-28T05:48:40;1.32;73.21
68439;SHT31;55421;51.600;5.718;2023-02-28T05:51:08;1.31;73.12
68439;SHT31;55421;51.600;5.718;2023-02-28T05:53:35;1.32;73.10
68439;SHT31;55421;51.600;5.718;2023-02-28T05:56:03;1.36;73.10
68439;SHT31;55421;51.600;5.718;2023-02-28T05:58:30;1.39;73.13
68439;SHT31;55421;51.600;5.718;2023-02-28T06:00:57;1.40;73.10
68439;SHT31;55421;51.600;5.718;2023-02-28T06:03:25;1.40;73.09
68439;SHT31;55421;51.600;5.718;2023-02-28T06:05:53;1.39;73.09
68439;SHT31;55421;51.600;5.718;2023-02-28T06:08:20;1.38;73.15
68439;SHT31;55421;51.600;5.718;2023-02-28T06:10:46;1.36;73.20
68439;SHT31;55421;51.600;5.718;2023-02-28T06:13:13;1.33;73.20
68439;SHT31;55421;51.600;5.718;2023-02-28T06:15:40;1.35;73.20
68439;SHT31;55421;51.600;5.718;2023-02-28T06:18:06;1.37;73.21
68439;SHT31;55421;51.600;5.718;2023-02-28T06:20:33;1.38;73.25
68439;SHT31;55421;51.600;5.718;2023-02-28T06:23:00;1.39;73.30
68439;SHT31;55421;51.600;5.718;2023-02-28T06:25:27;1.39;73.30
68439;SHT31;55421;51.600;5.718;2023-02-28T06:27:54;1.37;73.30
68439;SHT31;55421;51.600;5.718;2023-02-28T06:30:21;1.37;73.40
68439;SHT31;55421;51.600;5.718;2023-02-28T06:32:53;1.35;73.43
68439;SHT31;55421;51.600;5.718;2023-02-28T06:35:20;1.35;73.50
68439;SHT31;55421;51.600;5.718;2023-02-28T06:37:47;1.39;73.50
68439;SHT31;55421;51.600;5.718;2023-02-28T06:40:13;1.43;73.50
68439;SHT31;55421;51.600;5.718;2023-02-28T06:42:40;1.45;73.50
68439;SHT31;55421;51.600;5.718;2023-02-28T06:45:07;1.46;73.40
68439;SHT31;55421;51.600;5.718;2023-02-28T06:47:35;1.45;73.33
68439;SHT31;55421;51.600;5.718;2023-02-28T06:50:04;1.42;73.30
68439;SHT31;55421;51.600;5.718;2023-02-28T06:52:32;1.39;73.25
68439;SHT31;55421;51.600;5.718;2023-02-28T06:54:58;1.36;73.20
68439;SHT31;55421;51.600;5.718;2023-02-28T06:57:28;1.36;73.19
68439;SHT31;55421;51.600;5.718;2023-02-28T07:00:00;1.39;73.14
68439;SHT31;55421;51.600;5.718;2023-02-28T07:02:34;1.41;73.10
68439;SHT31;55421;51.600;5.718;2023-02-28T07:05:04;1.43;73.10
68439;SHT31;55421;51.600;5.718;2023-02-28T07:07:32;1.46;73.05
68439;SHT31;55421;51.600;5.718;2023-02-28T07:09:59;1.50;72.97
68439;SHT31;55421;51.600;5.718;2023-02-28T07:12:25;1.53;72.90
68439;SHT31;55421;51.600;5.718;2023-02-28T07:14:52;1.58;72.88
68439;SHT31;55421;51.600;5.718;2023-02-28T07:17:18;1.60;72.81
68439;SHT31;55421;51.600;5.718;2023-02-28T07:19:45;1.64;72.72
68439;SHT31;55421;51.600;5.718;2023-02-28T07:22:11;1.69;72.61
68439;SHT31;55421;51.600;5.718;2023-02-28T07:24:38;1.78;72.59
68439;SHT31;55421;51.600;5.718;2023-02-28T07:27:04;1.85;72.46
68439;SHT31;55421;51.600;5.718;2023-02-28T07:29:31;1.90;72.33
68439;SHT31;55421;51.600;5.718;2023-02-28T07:31:57;1.96;72.16
68439;SHT31;55421;51.600;5.718;2023-02-28T07:34:24;2.00;71.99
68439;SHT31;55421;51.600;5.718;2023-02-28T07:36:55;2.04;71.77
68439;SHT31;55421;51.600;5.718;2023-02-28T07:39:21;2.08;71.62
68439;SHT31;55421;51.600;5.718;2023-02-28T07:41:48;2.12;71.43
68439;SHT31;55421;51.600;5.718;2023-02-28T07:44:15;2.14;71.43
68439;SHT31;55421;51.600;5.718;2023-02-28T07:46:41;2.16;71.28
68439;SHT31;55421;51.600;5.718;2023-02-28T07:49:08;2.21;71.17
68439;SHT31;55421;51.600;5.718;2023-02-28T07:51:34;2.26;70.99
68439;SHT31;55421;51.600;5.718;2023-02-28T07:54:01;2.28;70.85
68439;SHT31;55421;51.600;5.718;2023-02-28T07:56:28;2.27;70.60
68439;SHT31;55421;51.600;5.718;2023-02-28T07:58:54;2.22;70.32
68439;SHT31;55421;51.600;5.718;2023-02-28T08:01:21;2.22;70.15
68439;SHT31;55421;51.600;5.718;2023-02-28T08:03:47;2.24;70.00
68439;SHT31;55421;51.600;5.718;2023-02-28T08:06:18;2.26;69.76
68439;SHT31;55421;51.600;5.718;2023-02-28T08:08:48;2.28;69.46
68439;SHT31;55421;51.600;5.718;2023-02-28T08:11:15;2.28;69.20
68439;SHT31;55421;51.600;5.718;2023-02-28T08:13:43;2.29;69.06
68439;SHT31;55421;51.600;5.718;2023-02-28T08:16:11;2.30;68.83
68439;SHT31;55421;51.600;5.718;2023-02-28T08:18:50;2.33;68.40
68439;SHT31;55421;51.600;5.718;2023-02-28T08:21:18;2.34;67.94
68439;SHT31;55421;51.600;5.718;2023-02-28T08:23:47;2.35;67.31
68439;SHT31;55421;51.600;5.718;2023-02-28T08:26:18;2.39;67.12
68439;SHT31;55421;51.600;5.718;2023-02-28T08:28:45;2.42;66.94
68439;SHT31;55421;51.600;5.718;2023-02-28T08:31:13;2.46;66.59
68439;SHT31;55421;51.600;5.718;2023-02-28T08:33:42;2.51;66.08
68439;SHT31;55421;51.600;5.718;2023-02-28T08:36:10;2.54;65.48
68439;SHT31;55421;51.600;5.718;2023-02-28T08:38:37;2.58;65.20
68439;SHT31;55421;51.600;5.718;2023-02-28T08:41:06;2.63;64.94
68439;SHT31;55421;51.600;5.718;2023-02-28T08:43:37;2.67;64.67
68439;SHT31;55421;51.600;5.718;2023-02-28T08:46:05;2.71;64.34
68439;SHT31;55421;51.600;5.718;2023-02-28T08:48:33;2.75;64.14
68439;SHT31;55421;51.600;5.718;2023-02-28T08:51:08;2.78;63.82
68439;SHT31;55421;51.600;5.718;2023-02-28T08:53:47;2.80;63.25
68439;SHT31;55421;51.600;5.718;2023-02-28T08:56:15;2.82;62.79
68439;SHT31;55421;51.600;5.718;2023-02-28T08:58:43;2.86;62.94
68439;SHT31;55421;51.600;5.718;2023-02-28T09:01:13;2.89;62.85
68439;SHT31;55421;51.600;5.718;2023-02-28T09:03:49;2.93;62.86
68439;SHT31;55421;51.600;5.718;2023-02-28T09:06:17;2.97;62.53
68439;SHT31;55421;51.600;5.718;2023-02-28T09:08:46;3.01;62.36
68439;SHT31;55421;51.600;5.718;2023-02-28T09:11:13;3.06;62.11
68439;SHT31;55421;51.600;5.718;2023-02-28T09:13:40;3.11;61.85
68439;SHT31;55421;51.600;5.718;2023-02-28T09:16:07;3.14;61.11
68439;SHT31;55421;51.600;5.718;2023-02-28T09:18:38;3.17;61.02
68439;SHT31;55421;51.600;5.718;2023-02-28T09:21:06;3.21;60.70
68439;SHT31;55421;51.600;5.718;2023-02-28T09:23:36;3.24;60.47
68439;SHT31;55421;51.600;5.718;2023-02-28T09:26:05;3.28;60.42
68439;SHT31;55421;51.600;5.718;2023-02-28T09:28:33;3.34;60.31
68439;SHT31;55421;51.600;5.718;2023-02-28T09:30:59;3.40;60.16
68439;SHT31;55421;51.600;5.718;2023-02-28T09:33:26;3.47;59.81
68439;SHT31;55421;51.600;5.718;2023-02-28T09:35:57;3.52;59.29
68439;SHT31;55421;51.600;5.718;2023-02-28T09:38:27;3.57;59.32
68439;SHT31;55421;51.600;5.718;2023-02-28T09:40:56;3.62;58.97
68439;SHT31;55421;51.600;5.718;2023-02-28T09:43:28;3.68;58.93
68439;SHT31;55421;51.600;5.718;2023-02-28T09:48:53;3.80;57.97
68439;SHT31;55421;51.600;5.718;2023-02-28T09:51:30;3.83;57.69
68439;SHT31;55421;51.600;5.718;2023-02-28T09:54:10;3.89;57.08
68439;SHT31;55421;51.600;5.718;2023-02-28T09:56:45;3.95;56.75
68439;SHT31;55421;51.600;5.718;2023-02-28T09:59:23;4.03;55.82
68439;SHT31;55421;51.600;5.718;2023-02-28T10:05:04;4.16;54.95
68439;SHT31;55421;51.600;5.718;2023-02-28T10:07:47;4.26;55.36
68439;SHT31;55421;51.600;5.718;2023-02-28T10:13:06;4.42;53.51
68439;SHT31;55421;51.600;5.718;2023-02-28T10:15:42;4.48;52.99
68439;SHT31;55421;51.600;5.718;2023-02-28T10:18:14;4.51;52.83
68439;SHT31;55421;51.600;5.718;2023-02-28T10:20:49;4.55;52.26
68439;SHT31;55421;51.600;5.718;2023-02-28T10:23:21;4.59;52.45
68439;SHT31;55421;51.600;5.718;2023-02-28T10:26:13;4.66;52.36
68439;SHT31;55421;51.600;5.718;2023-02-28T10:28:43;4.71;51.70
68439;SHT31;55421;51.600;5.718;2023-02-28T10:31:14;4.74;51.16
68439;SHT31;55421;51.600;5.718;2023-02-28T10:33:45;4.76;51.00
68439;SHT31;55421;51.600;5.718;2023-02-28T10:36:14;4.79;50.70
68439;SHT31;55421;51.600;5.718;2023-02-28T10:38:45;4.82;49.91
68439;SHT31;55421;51.600;5.718;2023-02-28T10:41:14;4.85;49.22
68439;SHT31;55421;51.600;5.718;2023-02-28T10:44:12;4.88;49.07
68439;SHT31;55421;51.600;5.718;2023-02-28T10:46:41;4.95;49.34
68439;SHT31;55421;51.600;5.718;2023-02-28T10:49:17;5.03;49.64
68439;SHT31;55421;51.600;5.718;2023-02-28T10:51:52;5.09;49.08
68439;SHT31;55421;51.600;5.718;2023-02-28T10:54:32;5.13;49.19
68439;SHT31;55421;51.600;5.718;2023-02-28T10:57:08;5.18;49.57
68439;SHT31;55421;51.600;5.718;2023-02-28T10:59:46;5.23;49.17
68439;SHT31;55421;51.600;5.718;2023-02-28T11:02:35;5.28;49.41
68439;SHT31;55421;51.600;5.718;2023-02-28T11:05:22;5.34;49.17
68439;SHT31;55421;51.600;5.718;2023-02-28T11:07:54;5.39;49.20
68439;SHT31;55421;51.600;5.718;2023-02-28T11:10:30;5.45;48.48
68439;SHT31;55421;51.600;5.718;2023-02-28T11:13:01;5.45;48.26
68439;SHT31;55421;51.600;5.718;2023-02-28T11:15:29;5.46;48.09
68439;SHT31;55421;51.600;5.718;2023-02-28T11:18:02;5.47;47.72
68439;SHT31;55421;51.600;5.718;2023-02-28T11:20:49;5.51;48.10
68439;SHT31;55421;51.600;5.718;2023-02-28T11:23:19;5.57;48.40
68439;SHT31;55421;51.600;5.718;2023-02-28T11:25:50;5.59;48.19
68439;SHT31;55421;51.600;5.718;2023-02-28T11:38:59;5.68;46.60
68439;SHT31;55421;51.600;5.718;2023-02-28T11:47:17;5.71;46.99
68439;SHT31;55421;51.600;5.718;2023-02-28T11:53:21;5.83;47.63
68439;SHT31;55421;51.600;5.718;2023-02-28T11:56:36;5.85;46.70
68439;SHT31;55421;51.600;5.718;2023-02-28T12:02:20;5.84;47.03
68439;SHT31;55421;51.600;5.718;2023-02-28T12:08:07;5.86;46.43
68439;SHT31;55421;51.600;5.718;2023-02-28T12:11:04;5.85;46.78
68439;SHT31;55421;51.600;5.718;2023-02-28T12:13:48;5.84;46.83
68439;SHT31;55421;51.600;5.718;2023-02-28T12:16:29;5.88;47.00
68439;SHT31;55421;51.600;5.718;2023-02-28T12:27:37;5.96;46.28
68439;SHT31;55421;51.600;5.718;2023-02-28T12:32:52;5.98;46.59
68439;SHT31;55421;51.600;5.718;2023-02-28T12:35:48;5.95;46.22
68439;SHT31;55421;51.600;5.718;2023-02-28T12:41:16;5.93;46.72
68439;SHT31;55421;51.600;5.718;2023-02-28T12:43:52;5.98;47.14
68439;SHT31;55421;51.600;5.718;2023-02-28T12:46:45;6.03;46.86
68439;SHT31;55421;51.600;5.718;2023-02-28T12:52:08;6.03;46.10
68439;SHT31;55421;51.600;5.718;2023-02-28T13:00:15;6.07;46.64
68439;SHT31;55421;51.600;5.718;2023-02-28T13:06:08;6.07;46.28
68439;SHT31;55421;51.600;5.718;2023-02-28T13:11:33;6.12;46.85
68439;SHT31;55421;51.600;5.718;2023-02-28T13:14:26;6.15;47.26
68439;SHT31;55421;51.600;5.718;2023-02-28T13:16:59;6.20;47.10
68439;SHT31;55421;51.600;5.718;2023-02-28T13:19:29;6.22;47.20
68439;SHT31;55421;51.600;5.718;2023-02-28T13:22:01;6.25;46.80
68439;SHT31;55421;51.600;5.718;2023-02-28T13:24:37;6.26;46.75
68439;SHT31;55421;51.600;5.718;2023-02-28T13:29:42;6.28;46.22
68439;SHT31;55421;51.600;5.718;2023-02-28T13:39:52;6.26;45.61
68439;SHT31;55421;51.600;5.718;2023-02-28T13:47:44;6.29;45.21
68439;SHT31;55421;51.600;5.718;2023-02-28T13:56:35;6.28;45.89
68439;SHT31;55421;51.600;5.718;2023-02-28T13:59:39;6.30;46.50
68439;SHT31;55421;51.600;5.718;2023-02-28T14:05:26;6.36;46.10
68439;SHT31;55421;51.600;5.718;2023-02-28T14:07:56;6.34;46.09
68439;SHT31;55421;51.600;5.718;2023-02-28T14:10:37;6.36;46.37
68439;SHT31;55421;51.600;5.718;2023-02-28T14:15:59;6.38;46.19
68439;SHT31;55421;51.600;5.718;2023-02-28T14:21:13;6.33;45.86
68439;SHT31;55421;51.600;5.718;2023-02-28T14:32:49;6.30;46.36
68439;SHT31;55421;51.600;5.718;2023-02-28T14:35:43;6.33;46.68
68439;SHT31;55421;51.600;5.718;2023-02-28T14:38:24;6.36;46.52
68439;SHT31;55421;51.600;5.718;2023-02-28T14:40:57;6.33;46.16
68439;SHT31;55421;51.600;5.718;2023-02-28T14:43:28;6.30;46.16
68439;SHT31;55421;51.600;5.718;2023-02-28T14:45:55;6.28;45.97
68439;SHT31;55421;51.600;5.718;2023-02-28T14:48:28;6.28;46.10
68439;SHT31;55421;51.600;5.718;2023-02-28T14:50:56;6.27;46.01
68439;SHT31;55421;51.600;5.718;2023-02-28T14:53:27;6.28;46.35
68439;SHT31;55421;51.600;5.718;2023-02-28T14:55:56;6.28;46.34
68439;SHT31;55421;51.600;5.718;2023-02-28T14:58:24;6.26;45.87
68439;SHT31;55421;51.600;5.718;2023-02-28T15:00:57;6.25;45.95
68439;SHT31;55421;51.600;5.718;2023-02-28T15:03:38;6.22;45.90
68439;SHT31;55421;51.600;5.718;2023-02-28T15:06:11;6.20;45.88
68439;SHT31;55421;51.600;5.718;2023-02-28T15:08:41;6.18;45.91
68439;SHT31;55421;51.600;5.718;2023-02-28T15:11:11;6.18;46.44
68439;SHT31;55421;51.600;5.718;2023-02-28T15:13:53;6.19;46.52
68439;SHT31;55421;51.600;5.718;2023-02-28T15:16:37;6.17;46.31
68439;SHT31;55421;51.600;5.718;2023-02-28T15:19:14;6.15;46.48
68439;SHT31;55421;51.600;5.718;2023-02-28T15:22:00;6.14;46.23
68439;SHT31;55421;51.600;5.718;2023-02-28T15:24:39;6.14;46.32
68439;SHT31;55421;51.600;5.718;2023-02-28T15:27:20;6.12;46.33
68439;SHT31;55421;51.600;5.718;2023-02-28T15:29:54;6.11;46.65
68439;SHT31;55421;51.600;5.718;2023-02-28T15:32:25;6.10;46.59
68439;SHT31;55421;51.600;5.718;2023-02-28T15:34:59;6.08;46.62
68439;SHT31;55421;51.600;5.718;2023-02-28T15:37:55;6.07;46.90
68439;SHT31;55421;51.600;5.718;2023-02-28T15:43:05;6.05;47.48
68439;SHT31;55421;51.600;5.718;2023-02-28T15:51:29;5.99;47.83
68439;SHT31;55421;51.600;5.718;2023-02-28T15:54:07;5.96;47.90
68439;SHT31;55421;51.600;5.718;2023-02-28T15:56:51;5.93;47.92
68439;SHT31;55421;51.600;5.718;2023-02-28T15:59:23;5.89;47.64
68439;SHT31;55421;51.600;5.718;2023-02-28T16:08:14;5.75;48.33
68439;SHT31;55421;51.600;5.718;2023-02-28T16:10:41;5.72;48.17
68439;SHT31;55421;51.600;5.718;2023-02-28T16:13:08;5.70;48.23
68439;SHT31;55421;51.600;5.718;2023-02-28T16:15:41;5.66;48.37
68439;SHT31;55421;51.600;5.718;2023-02-28T16:18:10;5.64;48.32
68439;SHT31;55421;51.600;5.718;2023-02-28T16:20:38;5.61;48.61
68439;SHT31;55421;51.600;5.718;2023-02-28T16:23:05;5.57;48.65
68439;SHT31;55421;51.600;5.718;2023-02-28T16:25:33;5.53;48.78
68439;SHT31;55421;51.600;5.718;2023-02-28T16:28:15;5.51;49.22
68439;SHT31;55421;51.600;5.718;2023-02-28T16:31:01;5.47;49.83
68439;SHT31;55421;51.600;5.718;2023-02-28T16:33:31;5.43;49.97
68439;SHT31;55421;51.600;5.718;2023-02-28T16:35:59;5.37;49.81
68439;SHT31;55421;51.600;5.718;2023-02-28T16:38:26;5.32;49.89
68439;SHT31;55421;51.600;5.718;2023-02-28T16:40:53;5.27;50.15
68439;SHT31;55421;51.600;5.718;2023-02-28T16:43:24;5.27;50.28
68439;SHT31;55421;51.600;5.718;2023-02-28T16:45:54;5.23;50.43
68439;SHT31;55421;51.600;5.718;2023-02-28T16:48:24;5.18;50.47
68439;SHT31;55421;51.600;5.718;2023-02-28T16:50:51;5.17;50.60
68439;SHT31;55421;51.600;5.718;2023-02-28T16:53:17;5.15;50.77
68439;SHT31;55421;51.600;5.718;2023-02-28T16:55:44;5.13;50.81
68439;SHT31;55421;51.600;5.718;2023-02-28T16:58:14;5.08;51.18
68439;SHT31;55421;51.600;5.718;2023-02-28T17:00:43;5.05;51.61
68439;SHT31;55421;51.600;5.718;2023-02-28T17:03:19;4.99;51.87
68439;SHT31;55421;51.600;5.718;2023-02-28T17:05:50;4.92;52.02
68439;SHT31;55421;51.600;5.718;2023-02-28T17:08:16;4.84;52.50
68439;SHT31;55421;51.600;5.718;2023-02-28T17:10:43;4.73;52.83
68439;SHT31;55421;51.600;5.718;2023-02-28T17:13:12;4.63;52.86
68439;SHT31;55421;51.600;5.718;2023-02-28T17:15:38;4.55;53.13
68439;SHT31;55421;51.600;5.718;2023-02-28T17:18:05;4.47;53.37
68439;SHT31;55421;51.600;5.718;2023-02-28T17:20:32;4.39;53.70
68439;SHT31;55421;51.600;5.718;2023-02-28T17:22:59;4.32;54.09
68439;SHT31;55421;51.600;5.718;2023-02-28T17:25:26;4.25;54.24
68439;SHT31;55421;51.600;5.718;2023-02-28T17:27:53;4.18;54.32
68439;SHT31;55421;51.600;5.718;2023-02-28T17:30:22;4.13;54.47
68439;SHT31;55421;51.600;5.718;2023-02-28T17:32:53;4.08;54.80
68439;SHT31;55421;51.600;5.718;2023-02-28T17:35:22;4.01;55.00
68439;SHT31;55421;51.600;5.718;2023-02-28T17:37:49;3.96;55.02
68439;SHT31;55421;51.600;5.718;2023-02-28T17:40:17;3.91;55.10
68439;SHT31;55421;51.600;5.718;2023-02-28T17:42:46;3.86;55.23
68439;SHT31;55421;51.600;5.718;2023-02-28T17:45:13;3.81;55.37
68439;SHT31;55421;51.600;5.718;2023-02-28T17:47:41;3.75;55.44
68439;SHT31;55421;51.600;5.718;2023-02-28T17:50:14;3.71;55.54
68439;SHT31;55421;51.600;5.718;2023-02-28T17:52:45;3.66;55.58
68439;SHT31;55421;51.600;5.718;2023-02-28T17:55:12;3.62;55.75
68439;SHT31;55421;51.600;5.718;2023-02-28T17:57:40;3.57;55.91
68439;SHT31;55421;51.600;5.718;2023-02-28T18:00:08;3.53;56.13
68439;SHT31;55421;51.600;5.718;2023-02-28T18:02:39;3.49;56.40
68439;SHT31;55421;51.600;5.718;2023-02-28T18:05:06;3.45;56.62
68439;SHT31;55421;51.600;5.718;2023-02-28T18:07:33;3.41;56.72
68439;SHT31;55421;51.600;5.718;2023-02-28T18:10:02;3.38;56.71
68439;SHT31;55421;51.600;5.718;2023-02-28T18:12:29;3.35;56.78
68439;SHT31;55421;51.600;5.718;2023-02-28T18:14:55;3.32;56.70
68439;SHT31;55421;51.600;5.718;2023-02-28T18:17:22;3.27;56.70
68439;SHT31;55421;51.600;5.718;2023-02-28T18:19:48;3.24;56.70
68439;SHT31;55421;51.600;5.718;2023-02-28T18:22:15;3.20;56.69
68439;SHT31;55421;51.600;5.718;2023-02-28T18:24:42;3.18;56.70
68439;SHT31;55421;51.600;5.718;2023-02-28T18:27:12;3.16;56.76
68439;SHT31;55421;51.600;5.718;2023-02-28T18:29:38;3.15;56.90
68439;SHT31;55421;51.600;5.718;2023-02-28T18:32:05;3.13;56.98
68439;SHT31;55421;51.600;5.718;2023-02-28T18:34:32;3.07;57.15
68439;SHT31;55421;51.600;5.718;2023-02-28T18:36:58;3.02;57.31
68439;SHT31;55421;51.600;5.718;2023-02-28T18:39:25;3.00;57.36
68439;SHT31;55421;51.600;5.718;2023-02-28T18:41:51;2.97;57.37